sensor_id;sensor_type;location;lat;lon;timestamp;P1;durP1;ratioP1;P2;durP2;ratioP2
76021;SDS011;64718;52.124;6.226;2023-11-19T00:00:22;21.92;;;12.43;;
76021;SDS011;64718;52.124;6.226;2023-11-19T00:02:48;26.10;;;12.10;;
76021;SDS011;64718;52.124;6.226;2023-11-19T00:05:15;27.85;;;12.55;;
76021;SDS011;64718;52.124;6.226;2023-11-19T00:07:41;27.17;;;12.73;;
76021;SDS011;64718;52.124;6.226;2023-11-19T00:10:08;23.40;;;12.13;;
76021;SDS011;64718;52.124;6.226;2023-11-19T00:12:36;24.33;;;11.77;;
76021;SDS011;64718;52.124;6.226;2023-11-19T00:15:05;27.17;;;11.75;;
76021;SDS011;64718;52.124;6.226;2023-11-19T00:17:36;27.02;;;12.13;;
76021;SDS011;64718;52.124;6.226;2023-11-19T00:20:03;25.77;;;11.07;;
76021;SDS011;64718;52.124;6.226;2023-11-19T00:22:31;22.80;;;12.20;;
76021;SDS011;64718;52.124;6.226;2023-11-19T00:24:57;24.23;;;11.65;;
76021;SDS011;64718;52.124;6.226;2023-11-19T00:27:24;19.98;;;10.13;;
76021;SDS011;64718;52.124;6.226;2023-11-19T00:29:51;19.67;;;11.32;;
76021;SDS011;64718;52.124;6.226;2023-11-19T00:32:19;20.27;;;11.35;;
76021;SDS011;64718;52.124;6.226;2023-11-19T00:34:45;19.13;;;8.88;;
76021;SDS011;64718;52.124;6.226;2023-11-19T00:37:12;17.58;;;8.15;;
76021;SDS011;64718;52.124;6.226;2023-11-19T00:39:40;16.75;;;8.80;;
76021;SDS011;64718;52.124;6.226;2023-11-19T00:42:06;26.55;;;9.65;;
76021;SDS011;64718;52.124;6.226;2023-11-19T00:44:33;19.15;;;8.63;;
76021;SDS011;64718;52.124;6.226;2023-11-19T00:46:59;19.40;;;8.65;;
76021;SDS011;64718;52.124;6.226;2023-11-19T00:49:28;14.27;;;7.90;;
76021;SDS011;64718;52.124;6.226;2023-11-19T00:51:55;15.30;;;7.80;;
76021;SDS011;64718;52.124;6.226;2023-11-19T00:54:21;12.50;;;7.72;;
76021;SDS011;64718;52.124;6.226;2023-11-19T00:59:17;18.27;;;6.30;;
76021;SDS011;64718;52.124;6.226;2023-11-19T01:01:44;11.57;;;7.38;;
76021;SDS011;64718;52.124;6.226;2023-11-19T01:04:10;13.68;;;6.15;;
76021;SDS011;64718;52.124;6.226;2023-11-19T01:06:38;19.70;;;6.35;;
76021;SDS011;64718;52.124;6.226;2023-11-19T01:09:05;13.23;;;5.10;;
76021;SDS011;64718;52.124;6.226;2023-11-19T01:11:32;17.27;;;6.05;;
76021;SDS011;64718;52.124;6.226;2023-11-19T01:13:58;13.70;;;5.47;;
76021;SDS011;64718;52.124;6.226;2023-11-19T01:16:25;14.80;;;6.30;;
76021;SDS011;64718;52.124;6.226;2023-11-19T01:18:52;12.40;;;5.88;;
76021;SDS011;64718;52.124;6.226;2023-11-19T01:21:19;11.75;;;6.03;;
76021;SDS011;64718;52.124;6.226;2023-11-19T01:23:48;13.70;;;5.43;;
76021;SDS011;64718;52.124;6.226;2023-11-19T01:26:14;8.80;;;5.32;;
76021;SDS011;64718;52.124;6.226;2023-11-19T01:28:42;11.50;;;6.70;;
76021;SDS011;64718;52.124;6.226;2023-11-19T01:31:10;11.88;;;5.82;;
76021;SDS011;64718;52.124;6.226;2023-11-19T01:33:37;17.35;;;6.25;;
76021;SDS011;64718;52.124;6.226;2023-11-19T01:36:05;12.10;;;5.13;;
76021;SDS011;64718;52.124;6.226;2023-11-19T01:38:33;9.68;;;4.63;;
76021;SDS011;64718;52.124;6.226;2023-11-19T01:41:00;13.65;;;6.80;;
76021;SDS011;64718;52.124;6.226;2023-11-19T01:43:31;13.07;;;5.10;;
76021;SDS011;64718;52.124;6.226;2023-11-19T01:45:59;15.60;;;4.95;;
76021;SDS011;64718;52.124;6.226;2023-11-19T01:48:26;11.05;;;4.97;;
76021;SDS011;64718;52.124;6.226;2023-11-19T01:50:53;12.10;;;4.47;;
76021;SDS011;64718;52.124;6.226;2023-11-19T01:53:20;11.35;;;5.00;;
76021;SDS011;64718;52.124;6.226;2023-11-19T01:55:46;11.85;;;5.43;;
76021;SDS011;64718;52.124;6.226;2023-11-19T01:58:15;11.38;;;4.13;;
76021;SDS011;64718;52.124;6.226;2023-11-19T02:00:43;16.50;;;4.97;;
76021;SDS011;64718;52.124;6.226;2023-11-19T02:03:11;9.70;;;4.20;;
76021;SDS011;64718;52.124;6.226;2023-11-19T02:05:38;18.95;;;5.05;;
76021;SDS011;64718;52.124;6.226;2023-11-19T02:08:05;13.43;;;5.05;;
76021;SDS011;64718;52.124;6.226;2023-11-19T02:10:32;12.20;;;4.72;;
76021;SDS011;64718;52.124;6.226;2023-11-19T02:12:58;11.05;;;3.75;;
76021;SDS011;64718;52.124;6.226;2023-11-19T02:15:26;8.35;;;3.92;;
76021;SDS011;64718;52.124;6.226;2023-11-19T02:17:53;15.52;;;4.45;;
76021;SDS011;64718;52.124;6.226;2023-11-19T02:20:19;14.18;;;4.22;;
76021;SDS011;64718;52.124;6.226;2023-11-19T02:22:46;13.18;;;3.92;;
76021;SDS011;64718;52.124;6.226;2023-11-19T02:25:25;12.25;;;5.13;;
76021;SDS011;64718;52.124;6.226;2023-11-19T02:27:59;9.38;;;4.05;;
76021;SDS011;64718;52.124;6.226;2023-11-19T02:30:27;10.02;;;4.32;;
76021;SDS011;64718;52.124;6.226;2023-11-19T02:32:54;12.65;;;4.40;;
76021;SDS011;64718;52.124;6.226;2023-11-19T02:35:22;9.60;;;3.88;;
76021;SDS011;64718;52.124;6.226;2023-11-19T02:37:48;13.40;;;4.72;;
76021;SDS011;64718;52.124;6.226;2023-11-19T02:40:15;19.88;;;4.88;;
76021;SDS011;64718;52.124;6.226;2023-11-19T02:42:42;17.65;;;3.95;;
76021;SDS011;64718;52.124;6.226;2023-11-19T02:45:10;12.52;;;4.65;;
76021;SDS011;64718;52.124;6.226;2023-11-19T02:47:39;22.35;;;5.03;;
76021;SDS011;64718;52.124;6.226;2023-11-19T02:50:07;8.65;;;3.92;;
76021;SDS011;64718;52.124;6.226;2023-11-19T02:52:38;11.77;;;4.50;;
76021;SDS011;64718;52.124;6.226;2023-11-19T02:55:06;8.43;;;3.45;;
76021;SDS011;64718;52.124;6.226;2023-11-19T02:57:35;12.57;;;4.00;;
76021;SDS011;64718;52.124;6.226;2023-11-19T03:00:02;12.68;;;3.80;;
76021;SDS011;64718;52.124;6.226;2023-11-19T03:02:38;15.10;;;4.00;;
76021;SDS011;64718;52.124;6.226;2023-11-19T03:05:09;13.93;;;2.78;;
76021;SDS011;64718;52.124;6.226;2023-11-19T03:07:36;12.85;;;3.38;;
76021;SDS011;64718;52.124;6.226;2023-11-19T03:10:03;14.05;;;3.42;;
76021;SDS011;64718;52.124;6.226;2023-11-19T03:12:31;18.15;;;4.18;;
76021;SDS011;64718;52.124;6.226;2023-11-19T03:14:58;17.77;;;3.97;;
76021;SDS011;64718;52.124;6.226;2023-11-19T03:17:24;17.40;;;3.38;;
76021;SDS011;64718;52.124;6.226;2023-11-19T03:19:53;8.48;;;3.13;;
76021;SDS011;64718;52.124;6.226;2023-11-19T03:22:19;16.60;;;4.47;;
76021;SDS011;64718;52.124;6.226;2023-11-19T03:24:46;16.17;;;4.50;;
76021;SDS011;64718;52.124;6.226;2023-11-19T03:27:12;13.27;;;3.20;;
76021;SDS011;64718;52.124;6.226;2023-11-19T03:29:39;12.27;;;2.70;;
76021;SDS011;64718;52.124;6.226;2023-11-19T03:32:06;10.52;;;2.95;;
76021;SDS011;64718;52.124;6.226;2023-11-19T03:34:32;16.77;;;2.97;;
76021;SDS011;64718;52.124;6.226;2023-11-19T03:37:00;16.60;;;3.25;;
76021;SDS011;64718;52.124;6.226;2023-11-19T03:39:28;22.30;;;4.10;;
76021;SDS011;64718;52.124;6.226;2023-11-19T03:41:55;15.35;;;3.42;;
76021;SDS011;64718;52.124;6.226;2023-11-19T03:44:21;18.80;;;3.28;;
76021;SDS011;64718;52.124;6.226;2023-11-19T03:46:48;16.65;;;4.57;;
76021;SDS011;64718;52.124;6.226;2023-11-19T03:49:14;19.52;;;3.13;;
76021;SDS011;64718;52.124;6.226;2023-11-19T03:51:41;29.08;;;4.05;;
76021;SDS011;64718;52.124;6.226;2023-11-19T03:54:09;16.75;;;3.60;;
76021;SDS011;64718;52.124;6.226;2023-11-19T03:59:03;20.73;;;3.45;;
76021;SDS011;64718;52.124;6.226;2023-11-19T04:01:29;21.17;;;3.58;;
76021;SDS011;64718;52.124;6.226;2023-11-19T04:03:56;18.08;;;3.88;;
76021;SDS011;64718;52.124;6.226;2023-11-19T04:06:22;14.55;;;3.47;;
76021;SDS011;64718;52.124;6.226;2023-11-19T04:08:49;12.73;;;3.75;;
76021;SDS011;64718;52.124;6.226;2023-11-19T04:11:17;16.63;;;4.05;;
76021;SDS011;64718;52.124;6.226;2023-11-19T04:13:43;17.98;;;4.10;;
76021;SDS011;64718;52.124;6.226;2023-11-19T04:16:10;16.48;;;3.08;;
76021;SDS011;64718;52.124;6.226;2023-11-19T04:18:36;21.25;;;4.38;;
76021;SDS011;64718;52.124;6.226;2023-11-19T04:21:05;17.45;;;3.25;;
76021;SDS011;64718;52.124;6.226;2023-11-19T04:23:32;19.40;;;4.20;;
76021;SDS011;64718;52.124;6.226;2023-11-19T04:26:01;15.48;;;2.95;;
76021;SDS011;64718;52.124;6.226;2023-11-19T04:28:30;21.83;;;4.35;;
76021;SDS011;64718;52.124;6.226;2023-11-19T04:30:57;26.50;;;4.13;;
76021;SDS011;64718;52.124;6.226;2023-11-19T04:33:23;16.75;;;3.65;;
76021;SDS011;64718;52.124;6.226;2023-11-19T04:35:50;24.20;;;5.10;;
76021;SDS011;64718;52.124;6.226;2023-11-19T04:38:16;17.88;;;3.30;;
76021;SDS011;64718;52.124;6.226;2023-11-19T04:40:43;17.88;;;3.80;;
76021;SDS011;64718;52.124;6.226;2023-11-19T04:43:10;20.90;;;3.85;;
76021;SDS011;64718;52.124;6.226;2023-11-19T04:45:37;19.08;;;4.28;;
76021;SDS011;64718;52.124;6.226;2023-11-19T04:48:04;19.23;;;4.63;;
76021;SDS011;64718;52.124;6.226;2023-11-19T04:50:31;22.30;;;3.83;;
76021;SDS011;64718;52.124;6.226;2023-11-19T04:52:57;20.52;;;3.95;;
76021;SDS011;64718;52.124;6.226;2023-11-19T04:55:24;19.85;;;4.05;;
76021;SDS011;64718;52.124;6.226;2023-11-19T04:57:53;13.55;;;3.58;;
76021;SDS011;64718;52.124;6.226;2023-11-19T05:00:20;18.65;;;3.80;;
76021;SDS011;64718;52.124;6.226;2023-11-19T05:02:49;26.25;;;3.88;;
76021;SDS011;64718;52.124;6.226;2023-11-19T05:05:15;20.42;;;3.70;;
76021;SDS011;64718;52.124;6.226;2023-11-19T05:07:42;17.40;;;4.53;;
76021;SDS011;64718;52.124;6.226;2023-11-19T05:10:09;23.25;;;4.47;;
76021;SDS011;64718;52.124;6.226;2023-11-19T05:12:35;17.60;;;4.00;;
76021;SDS011;64718;52.124;6.226;2023-11-19T05:15:02;23.95;;;4.38;;
76021;SDS011;64718;52.124;6.226;2023-11-19T05:17:29;19.05;;;3.80;;
76021;SDS011;64718;52.124;6.226;2023-11-19T05:19:57;26.65;;;4.50;;
76021;SDS011;64718;52.124;6.226;2023-11-19T05:22:23;20.20;;;4.40;;
76021;SDS011;64718;52.124;6.226;2023-11-19T05:24:51;27.20;;;4.15;;
76021;SDS011;64718;52.124;6.226;2023-11-19T05:27:17;20.00;;;4.90;;
76021;SDS011;64718;52.124;6.226;2023-11-19T05:29:44;21.88;;;4.47;;
76021;SDS011;64718;52.124;6.226;2023-11-19T05:32:10;16.27;;;3.30;;
76021;SDS011;64718;52.124;6.226;2023-11-19T05:34:37;19.13;;;3.80;;
76021;SDS011;64718;52.124;6.226;2023-11-19T05:37:05;25.80;;;4.70;;
76021;SDS011;64718;52.124;6.226;2023-11-19T05:39:31;25.60;;;4.28;;
76021;SDS011;64718;52.124;6.226;2023-11-19T05:41:58;20.65;;;4.93;;
76021;SDS011;64718;52.124;6.226;2023-11-19T05:44:24;18.05;;;3.83;;
76021;SDS011;64718;52.124;6.226;2023-11-19T05:46:51;18.52;;;3.55;;
76021;SDS011;64718;52.124;6.226;2023-11-19T05:49:17;22.27;;;3.72;;
76021;SDS011;64718;52.124;6.226;2023-11-19T05:51:44;25.15;;;5.07;;
76021;SDS011;64718;52.124;6.226;2023-11-19T05:54:12;18.88;;;4.50;;
76021;SDS011;64718;52.124;6.226;2023-11-19T05:56:39;24.88;;;4.75;;
76021;SDS011;64718;52.124;6.226;2023-11-19T05:59:05;18.95;;;3.47;;
76021;SDS011;64718;52.124;6.226;2023-11-19T06:01:39;19.88;;;5.78;;
76021;SDS011;64718;52.124;6.226;2023-11-19T06:04:07;11.20;;;2.50;;
76021;SDS011;64718;52.124;6.226;2023-11-19T06:06:33;19.80;;;3.08;;
76021;SDS011;64718;52.124;6.226;2023-11-19T06:09:00;17.80;;;3.72;;
76021;SDS011;64718;52.124;6.226;2023-11-19T06:11:32;17.73;;;3.08;;
76021;SDS011;64718;52.124;6.226;2023-11-19T06:14:01;18.10;;;2.80;;
76021;SDS011;64718;52.124;6.226;2023-11-19T06:16:28;32.13;;;4.88;;
76021;SDS011;64718;52.124;6.226;2023-11-19T06:18:54;19.73;;;3.28;;
76021;SDS011;64718;52.124;6.226;2023-11-19T06:21:21;29.48;;;4.28;;
76021;SDS011;64718;52.124;6.226;2023-11-19T06:23:47;20.85;;;4.25;;
76021;SDS011;64718;52.124;6.226;2023-11-19T06:26:16;22.98;;;3.75;;
76021;SDS011;64718;52.124;6.226;2023-11-19T06:28:44;20.27;;;3.88;;
76021;SDS011;64718;52.124;6.226;2023-11-19T06:31:11;17.70;;;3.28;;
76021;SDS011;64718;52.124;6.226;2023-11-19T06:33:41;19.48;;;4.28;;
76021;SDS011;64718;52.124;6.226;2023-11-19T06:36:07;18.88;;;4.80;;
76021;SDS011;64718;52.124;6.226;2023-11-19T06:38:34;18.98;;;4.00;;
76021;SDS011;64718;52.124;6.226;2023-11-19T06:41:01;25.80;;;4.13;;
76021;SDS011;64718;52.124;6.226;2023-11-19T06:43:28;24.17;;;3.60;;
76021;SDS011;64718;52.124;6.226;2023-11-19T06:45:55;16.08;;;3.47;;
76021;SDS011;64718;52.124;6.226;2023-11-19T06:48:22;26.88;;;5.32;;
76021;SDS011;64718;52.124;6.226;2023-11-19T06:50:48;17.95;;;3.28;;
76021;SDS011;64718;52.124;6.226;2023-11-19T06:53:15;28.13;;;4.43;;
76021;SDS011;64718;52.124;6.226;2023-11-19T06:55:41;22.75;;;4.05;;
76021;SDS011;64718;52.124;6.226;2023-11-19T06:58:08;16.60;;;3.47;;
76021;SDS011;64718;52.124;6.226;2023-11-19T07:00:34;20.40;;;4.50;;
76021;SDS011;64718;52.124;6.226;2023-11-19T07:03:02;24.05;;;3.50;;
76021;SDS011;64718;52.124;6.226;2023-11-19T07:05:31;15.52;;;3.85;;
76021;SDS011;64718;52.124;6.226;2023-11-19T07:07:58;19.25;;;4.75;;
76021;SDS011;64718;52.124;6.226;2023-11-19T07:10:24;18.83;;;3.83;;
76021;SDS011;64718;52.124;6.226;2023-11-19T07:12:51;19.40;;;3.70;;
76021;SDS011;64718;52.124;6.226;2023-11-19T07:15:18;19.77;;;3.05;;
76021;SDS011;64718;52.124;6.226;2023-11-19T07:17:44;20.90;;;5.40;;
76021;SDS011;64718;52.124;6.226;2023-11-19T07:20:12;23.33;;;4.32;;
76021;SDS011;64718;52.124;6.226;2023-11-19T07:22:41;22.88;;;4.15;;
76021;SDS011;64718;52.124;6.226;2023-11-19T07:25:08;15.85;;;3.67;;
76021;SDS011;64718;52.124;6.226;2023-11-19T07:27:34;13.07;;;2.92;;
76021;SDS011;64718;52.124;6.226;2023-11-19T07:30:01;23.73;;;4.38;;
76021;SDS011;64718;52.124;6.226;2023-11-19T07:32:28;19.17;;;5.03;;
76021;SDS011;64718;52.124;6.226;2023-11-19T07:34:54;22.75;;;4.25;;
76021;SDS011;64718;52.124;6.226;2023-11-19T07:37:22;23.10;;;5.22;;
76021;SDS011;64718;52.124;6.226;2023-11-19T07:39:49;27.83;;;3.50;;
76021;SDS011;64718;52.124;6.226;2023-11-19T07:42:16;19.77;;;3.75;;
76021;SDS011;64718;52.124;6.226;2023-11-19T07:44:42;20.60;;;4.25;;
76021;SDS011;64718;52.124;6.226;2023-11-19T07:47:10;20.25;;;4.95;;
76021;SDS011;64718;52.124;6.226;2023-11-19T07:49:37;20.85;;;4.50;;
76021;SDS011;64718;52.124;6.226;2023-11-19T07:52:04;19.42;;;3.97;;
76021;SDS011;64718;52.124;6.226;2023-11-19T07:54:33;22.52;;;4.53;;
76021;SDS011;64718;52.124;6.226;2023-11-19T07:57:00;25.58;;;4.53;;
76021;SDS011;64718;52.124;6.226;2023-11-19T07:59:26;17.48;;;3.88;;
76021;SDS011;64718;52.124;6.226;2023-11-19T08:01:53;20.83;;;4.03;;
76021;SDS011;64718;52.124;6.226;2023-11-19T08:04:19;24.75;;;4.95;;
76021;SDS011;64718;52.124;6.226;2023-11-19T08:06:46;17.75;;;4.18;;
76021;SDS011;64718;52.124;6.226;2023-11-19T08:09:12;21.35;;;4.63;;
76021;SDS011;64718;52.124;6.226;2023-11-19T08:11:41;12.43;;;3.97;;
76021;SDS011;64718;52.124;6.226;2023-11-19T08:14:08;18.90;;;3.97;;
76021;SDS011;64718;52.124;6.226;2023-11-19T08:16:34;18.45;;;3.92;;
76021;SDS011;64718;52.124;6.226;2023-11-19T08:19:02;25.40;;;4.10;;
76021;SDS011;64718;52.124;6.226;2023-11-19T08:21:29;21.42;;;3.72;;
76021;SDS011;64718;52.124;6.226;2023-11-19T08:23:56;15.63;;;3.60;;
76021;SDS011;64718;52.124;6.226;2023-11-19T08:26:22;15.77;;;3.85;;
76021;SDS011;64718;52.124;6.226;2023-11-19T08:28:50;24.52;;;4.30;;
76021;SDS011;64718;52.124;6.226;2023-11-19T08:31:18;21.00;;;3.92;;
76021;SDS011;64718;52.124;6.226;2023-11-19T08:33:44;13.60;;;2.58;;
76021;SDS011;64718;52.124;6.226;2023-11-19T08:36:15;22.20;;;3.08;;
76021;SDS011;64718;52.124;6.226;2023-11-19T08:38:42;14.73;;;3.33;;
76021;SDS011;64718;52.124;6.226;2023-11-19T08:41:08;19.30;;;5.00;;
76021;SDS011;64718;52.124;6.226;2023-11-19T08:43:35;22.13;;;5.82;;
76021;SDS011;64718;52.124;6.226;2023-11-19T08:46:03;21.25;;;5.68;;
76021;SDS011;64718;52.124;6.226;2023-11-19T08:48:30;16.00;;;4.20;;
76021;SDS011;64718;52.124;6.226;2023-11-19T08:50:56;22.20;;;4.60;;
76021;SDS011;64718;52.124;6.226;2023-11-19T08:53:23;16.35;;;3.78;;
76021;SDS011;64718;52.124;6.226;2023-11-19T08:55:50;19.02;;;4.15;;
76021;SDS011;64718;52.124;6.226;2023-11-19T08:58:16;16.40;;;4.07;;
76021;SDS011;64718;52.124;6.226;2023-11-19T09:00:43;16.95;;;3.63;;
76021;SDS011;64718;52.124;6.226;2023-11-19T09:03:11;18.38;;;4.07;;
76021;SDS011;64718;52.124;6.226;2023-11-19T09:05:37;14.63;;;3.13;;
76021;SDS011;64718;52.124;6.226;2023-11-19T09:08:04;21.05;;;4.20;;
76021;SDS011;64718;52.124;6.226;2023-11-19T09:10:31;16.67;;;4.18;;
76021;SDS011;64718;52.124;6.226;2023-11-19T09:12:58;20.52;;;3.83;;
76021;SDS011;64718;52.124;6.226;2023-11-19T09:15:24;18.80;;;3.85;;
76021;SDS011;64718;52.124;6.226;2023-11-19T09:17:51;23.00;;;4.15;;
76021;SDS011;64718;52.124;6.226;2023-11-19T09:20:18;20.00;;;4.65;;
76021;SDS011;64718;52.124;6.226;2023-11-19T09:22:45;10.32;;;3.45;;
76021;SDS011;64718;52.124;6.226;2023-11-19T09:25:12;23.92;;;4.20;;
76021;SDS011;64718;52.124;6.226;2023-11-19T09:27:41;16.17;;;3.95;;
76021;SDS011;64718;52.124;6.226;2023-11-19T09:30:08;19.77;;;3.05;;
76021;SDS011;64718;52.124;6.226;2023-11-19T09:32:35;9.98;;;2.78;;
76021;SDS011;64718;52.124;6.226;2023-11-19T09:35:02;18.42;;;3.30;;
76021;SDS011;64718;52.124;6.226;2023-11-19T09:37:30;22.20;;;4.60;;
76021;SDS011;64718;52.124;6.226;2023-11-19T09:39:57;16.58;;;3.63;;
76021;SDS011;64718;52.124;6.226;2023-11-19T09:42:23;18.02;;;2.85;;
76021;SDS011;64718;52.124;6.226;2023-11-19T09:44:50;16.10;;;4.85;;
76021;SDS011;64718;52.124;6.226;2023-11-19T09:47:17;11.63;;;3.03;;
76021;SDS011;64718;52.124;6.226;2023-11-19T09:49:45;19.30;;;4.10;;
76021;SDS011;64718;52.124;6.226;2023-11-19T09:52:12;22.10;;;4.50;;
76021;SDS011;64718;52.124;6.226;2023-11-19T09:54:41;13.43;;;2.17;;
76021;SDS011;64718;52.124;6.226;2023-11-19T09:57:07;16.00;;;3.80;;
76021;SDS011;64718;52.124;6.226;2023-11-19T10:02:04;16.08;;;2.97;;
76021;SDS011;64718;52.124;6.226;2023-11-19T10:04:32;14.18;;;3.60;;
76021;SDS011;64718;52.124;6.226;2023-11-19T10:07:00;19.48;;;3.15;;
76021;SDS011;64718;52.124;6.226;2023-11-19T10:09:27;20.33;;;3.25;;
76021;SDS011;64718;52.124;6.226;2023-11-19T10:11:55;13.90;;;3.22;;
76021;SDS011;64718;52.124;6.226;2023-11-19T10:14:22;19.20;;;3.17;;
76021;SDS011;64718;52.124;6.226;2023-11-19T10:16:49;22.85;;;4.85;;
76021;SDS011;64718;52.124;6.226;2023-11-19T10:19:18;25.88;;;3.20;;
76021;SDS011;64718;52.124;6.226;2023-11-19T10:21:45;16.55;;;4.85;;
76021;SDS011;64718;52.124;6.226;2023-11-19T10:24:12;14.23;;;3.63;;
76021;SDS011;64718;52.124;6.226;2023-11-19T10:26:38;15.32;;;3.58;;
76021;SDS011;64718;52.124;6.226;2023-11-19T10:29:08;14.20;;;3.80;;
76021;SDS011;64718;52.124;6.226;2023-11-19T10:31:34;13.85;;;2.92;;
76021;SDS011;64718;52.124;6.226;2023-11-19T10:34:01;14.77;;;3.78;;
76021;SDS011;64718;52.124;6.226;2023-11-19T10:36:38;15.93;;;2.28;;
76021;SDS011;64718;52.124;6.226;2023-11-19T10:39:06;19.27;;;4.28;;
76021;SDS011;64718;52.124;6.226;2023-11-19T10:41:34;18.98;;;3.42;;
76021;SDS011;64718;52.124;6.226;2023-11-19T10:44:01;16.40;;;2.83;;
76021;SDS011;64718;52.124;6.226;2023-11-19T10:46:37;14.60;;;3.03;;
76021;SDS011;64718;52.124;6.226;2023-11-19T10:49:05;17.65;;;3.60;;
76021;SDS011;64718;52.124;6.226;2023-11-19T10:51:32;12.68;;;3.35;;
76021;SDS011;64718;52.124;6.226;2023-11-19T10:54:01;14.27;;;3.67;;
76021;SDS011;64718;52.124;6.226;2023-11-19T10:56:30;19.27;;;3.08;;
76021;SDS011;64718;52.124;6.226;2023-11-19T10:58:58;17.13;;;2.88;;
76021;SDS011;64718;52.124;6.226;2023-11-19T11:01:26;17.08;;;2.72;;
76021;SDS011;64718;52.124;6.226;2023-11-19T11:04:00;14.88;;;3.90;;
76021;SDS011;64718;52.124;6.226;2023-11-19T11:06:28;8.27;;;2.63;;
76021;SDS011;64718;52.124;6.226;2023-11-19T11:08:56;15.98;;;2.45;;
76021;SDS011;64718;52.124;6.226;2023-11-19T11:11:24;17.02;;;3.45;;
76021;SDS011;64718;52.124;6.226;2023-11-19T11:13:52;12.48;;;2.97;;
76021;SDS011;64718;52.124;6.226;2023-11-19T11:16:21;21.77;;;4.22;;
76021;SDS011;64718;52.124;6.226;2023-11-19T11:18:50;20.17;;;2.08;;
76021;SDS011;64718;52.124;6.226;2023-11-19T11:21:20;17.35;;;2.67;;
76021;SDS011;64718;52.124;6.226;2023-11-19T11:24:03;17.30;;;3.50;;
76021;SDS011;64718;52.124;6.226;2023-11-19T11:29:54;13.60;;;2.97;;
76021;SDS011;64718;52.124;6.226;2023-11-19T11:32:33;14.13;;;2.75;;
76021;SDS011;64718;52.124;6.226;2023-11-19T11:35:10;12.57;;;3.30;;
76021;SDS011;64718;52.124;6.226;2023-11-19T11:37:55;13.10;;;3.30;;
76021;SDS011;64718;52.124;6.226;2023-11-19T11:40:27;17.15;;;3.17;;
76021;SDS011;64718;52.124;6.226;2023-11-19T11:42:53;11.05;;;2.40;;
76021;SDS011;64718;52.124;6.226;2023-11-19T11:45:20;13.73;;;3.75;;
76021;SDS011;64718;52.124;6.226;2023-11-19T11:48:10;14.82;;;3.88;;
76021;SDS011;64718;52.124;6.226;2023-11-19T11:50:51;17.05;;;3.50;;
76021;SDS011;64718;52.124;6.226;2023-11-19T11:53:21;13.95;;;2.42;;
76021;SDS011;64718;52.124;6.226;2023-11-19T11:55:55;15.40;;;3.13;;
76021;SDS011;64718;52.124;6.226;2023-11-19T11:58:35;12.45;;;3.63;;
76021;SDS011;64718;52.124;6.226;2023-11-19T12:01:04;10.93;;;3.55;;
76021;SDS011;64718;52.124;6.226;2023-11-19T12:03:34;15.40;;;3.00;;
76021;SDS011;64718;52.124;6.226;2023-11-19T12:06:00;14.95;;;3.47;;
76021;SDS011;64718;52.124;6.226;2023-11-19T12:08:29;14.52;;;3.75;;
76021;SDS011;64718;52.124;6.226;2023-11-19T12:10:57;14.55;;;3.13;;
76021;SDS011;64718;52.124;6.226;2023-11-19T12:13:26;10.75;;;3.10;;
76021;SDS011;64718;52.124;6.226;2023-11-19T12:16:12;16.27;;;3.67;;
76021;SDS011;64718;52.124;6.226;2023-11-19T12:18:39;12.82;;;3.70;;
76021;SDS011;64718;52.124;6.226;2023-11-19T12:21:07;18.17;;;3.33;;
76021;SDS011;64718;52.124;6.226;2023-11-19T12:23:43;16.42;;;4.55;;
76021;SDS011;64718;52.124;6.226;2023-11-19T12:26:21;15.07;;;3.47;;
76021;SDS011;64718;52.124;6.226;2023-11-19T12:28:57;16.38;;;3.70;;
76021;SDS011;64718;52.124;6.226;2023-11-19T12:31:24;17.75;;;2.63;;
76021;SDS011;64718;52.124;6.226;2023-11-19T12:33:51;26.20;;;4.60;;
76021;SDS011;64718;52.124;6.226;2023-11-19T12:36:17;14.57;;;3.70;;
76021;SDS011;64718;52.124;6.226;2023-11-19T12:38:46;16.30;;;2.85;;
76021;SDS011;64718;52.124;6.226;2023-11-19T12:41:12;10.93;;;2.22;;
76021;SDS011;64718;52.124;6.226;2023-11-19T12:43:43;12.57;;;2.92;;
76021;SDS011;64718;52.124;6.226;2023-11-19T12:46:19;10.48;;;2.35;;
76021;SDS011;64718;52.124;6.226;2023-11-19T12:48:46;13.82;;;3.13;;
76021;SDS011;64718;52.124;6.226;2023-11-19T12:51:13;12.77;;;4.07;;
76021;SDS011;64718;52.124;6.226;2023-11-19T12:53:48;10.23;;;2.40;;
76021;SDS011;64718;52.124;6.226;2023-11-19T12:56:18;9.40;;;2.75;;
76021;SDS011;64718;52.124;6.226;2023-11-19T12:58:44;13.85;;;2.55;;
76021;SDS011;64718;52.124;6.226;2023-11-19T13:01:14;12.07;;;2.10;;
76021;SDS011;64718;52.124;6.226;2023-11-19T13:03:42;9.10;;;2.63;;
76021;SDS011;64718;52.124;6.226;2023-11-19T13:06:09;11.43;;;2.85;;
76021;SDS011;64718;52.124;6.226;2023-11-19T13:08:37;13.10;;;2.80;;
76021;SDS011;64718;52.124;6.226;2023-11-19T13:11:06;12.10;;;2.53;;
76021;SDS011;64718;52.124;6.226;2023-11-19T13:16:22;10.23;;;3.13;;
76021;SDS011;64718;52.124;6.226;2023-11-19T13:18:48;7.30;;;2.25;;
76021;SDS011;64718;52.124;6.226;2023-11-19T13:21:15;10.98;;;2.78;;
76021;SDS011;64718;52.124;6.226;2023-11-19T13:23:42;9.77;;;2.10;;
76021;SDS011;64718;52.124;6.226;2023-11-19T13:26:10;17.63;;;4.57;;
76021;SDS011;64718;52.124;6.226;2023-11-19T13:28:36;14.27;;;2.67;;
76021;SDS011;64718;52.124;6.226;2023-11-19T13:31:03;13.10;;;2.70;;
76021;SDS011;64718;52.124;6.226;2023-11-19T13:33:30;9.98;;;2.50;;
76021;SDS011;64718;52.124;6.226;2023-11-19T13:35:57;11.93;;;2.60;;
76021;SDS011;64718;52.124;6.226;2023-11-19T13:38:24;16.77;;;2.55;;
76021;SDS011;64718;52.124;6.226;2023-11-19T13:40:51;16.00;;;3.75;;
76021;SDS011;64718;52.124;6.226;2023-11-19T13:43:19;10.23;;;2.88;;
76021;SDS011;64718;52.124;6.226;2023-11-19T13:45:45;11.48;;;3.40;;
76021;SDS011;64718;52.124;6.226;2023-11-19T13:48:12;14.55;;;2.10;;
76021;SDS011;64718;52.124;6.226;2023-11-19T13:50:38;9.45;;;2.45;;
76021;SDS011;64718;52.124;6.226;2023-11-19T13:53:05;10.20;;;3.67;;
76021;SDS011;64718;52.124;6.226;2023-11-19T13:55:31;14.75;;;2.58;;
76021;SDS011;64718;52.124;6.226;2023-11-19T13:57:58;13.13;;;2.55;;
76021;SDS011;64718;52.124;6.226;2023-11-19T14:00:26;17.20;;;3.08;;
76021;SDS011;64718;52.124;6.226;2023-11-19T14:02:52;10.93;;;1.88;;
76021;SDS011;64718;52.124;6.226;2023-11-19T14:05:19;7.07;;;2.03;;
76021;SDS011;64718;52.124;6.226;2023-11-19T14:07:45;12.40;;;3.35;;
76021;SDS011;64718;52.124;6.226;2023-11-19T14:10:13;15.65;;;3.10;;
76021;SDS011;64718;52.124;6.226;2023-11-19T14:12:40;12.82;;;2.63;;
76021;SDS011;64718;52.124;6.226;2023-11-19T14:15:07;18.52;;;2.80;;
76021;SDS011;64718;52.124;6.226;2023-11-19T14:17:38;12.60;;;3.08;;
76021;SDS011;64718;52.124;6.226;2023-11-19T14:20:06;13.20;;;3.30;;
76021;SDS011;64718;52.124;6.226;2023-11-19T14:22:37;15.10;;;2.60;;
76021;SDS011;64718;52.124;6.226;2023-11-19T14:25:04;19.48;;;3.10;;
76021;SDS011;64718;52.124;6.226;2023-11-19T14:27:35;11.10;;;2.85;;
76021;SDS011;64718;52.124;6.226;2023-11-19T14:30:01;12.98;;;2.38;;
76021;SDS011;64718;52.124;6.226;2023-11-19T14:32:28;7.47;;;2.55;;
76021;SDS011;64718;52.124;6.226;2023-11-19T14:34:56;8.00;;;2.55;;
76021;SDS011;64718;52.124;6.226;2023-11-19T14:37:22;12.10;;;2.15;;
76021;SDS011;64718;52.124;6.226;2023-11-19T14:39:49;16.55;;;2.75;;
76021;SDS011;64718;52.124;6.226;2023-11-19T14:42:16;14.68;;;3.58;;
76021;SDS011;64718;52.124;6.226;2023-11-19T14:44:43;16.55;;;2.92;;
76021;SDS011;64718;52.124;6.226;2023-11-19T14:47:09;10.40;;;2.38;;
76021;SDS011;64718;52.124;6.226;2023-11-19T14:49:36;11.00;;;2.75;;
76021;SDS011;64718;52.124;6.226;2023-11-19T14:52:04;16.38;;;2.78;;